sensor_id;sensor_type;location;lat;lon;timestamp;P1;durP1;ratioP1;P2;durP2;ratioP2
64031;SDS011;50278;47.796;11.968;2023-04-03T00:01:23;11.93;;;8.57;;
64031;SDS011;50278;47.796;11.968;2023-04-03T00:03:48;10.55;;;7.47;;
64031;SDS011;50278;47.796;11.968;2023-04-03T00:06:15;13.07;;;9.73;;
64031;SDS011;50278;47.796;11.968;2023-04-03T00:08:40;11.18;;;7.95;;
64031;SDS011;50278;47.796;11.968;2023-04-03T00:11:07;10.27;;;8.10;;
64031;SDS011;50278;47.796;11.968;2023-04-03T00:13:32;11.30;;;9.10;;
64031;SDS011;50278;47.796;11.968;2023-04-03T00:15:59;13.93;;;9.60;;
64031;SDS011;50278;47.796;11.968;2023-04-03T00:18:25;11.95;;;9.45;;
64031;SDS011;50278;47.796;11.968;2023-04-03T00:20:50;12.63;;;8.70;;
64031;SDS011;50278;47.796;11.968;2023-04-03T00:23:16;12.18;;;9.27;;
64031;SDS011;50278;47.796;11.968;2023-04-03T00:25:42;13.90;;;9.48;;
64031;SDS011;50278;47.796;11.968;2023-04-03T00:28:08;11.60;;;8.80;;
64031;SDS011;50278;47.796;11.968;2023-04-03T00:30:34;13.73;;;10.20;;
64031;SDS011;50278;47.796;11.968;2023-04-03T00:33:00;14.48;;;10.32;;
64031;SDS011;50278;47.796;11.968;2023-04-03T00:35:26;13.45;;;9.43;;
64031;SDS011;50278;47.796;11.968;2023-04-03T00:37:52;14.95;;;10.32;;
64031;SDS011;50278;47.796;11.968;2023-04-03T00:40:18;12.32;;;9.32;;
64031;SDS011;50278;47.796;11.968;2023-04-03T00:42:45;13.68;;;10.20;;
64031;SDS011;50278;47.796;11.968;2023-04-03T00:45:27;12.88;;;9.43;;
64031;SDS011;50278;47.796;11.968;2023-04-03T00:50:21;12.60;;;9.27;;
64031;SDS011;50278;47.796;11.968;2023-04-03T00:52:47;14.00;;;9.80;;
64031;SDS011;50278;47.796;11.968;2023-04-03T00:55:14;13.57;;;10.35;;
64031;SDS011;50278;47.796;11.968;2023-04-03T00:57:41;14.27;;;10.88;;
64031;SDS011;50278;47.796;11.968;2023-04-03T01:00:11;13.73;;;10.20;;
64031;SDS011;50278;47.796;11.968;2023-04-03T01:02:39;13.60;;;9.07;;
64031;SDS011;50278;47.796;11.968;2023-04-03T01:05:07;12.45;;;9.15;;
64031;SDS011;50278;47.796;11.968;2023-04-03T01:07:33;13.65;;;10.02;;
64031;SDS011;50278;47.796;11.968;2023-04-03T01:10:03;12.73;;;9.18;;
64031;SDS011;50278;47.796;11.968;2023-04-03T01:12:33;13.25;;;9.93;;
64031;SDS011;50278;47.796;11.968;2023-04-03T01:15:06;13.60;;;9.57;;
64031;SDS011;50278;47.796;11.968;2023-04-03T01:17:44;18.05;;;11.07;;
64031;SDS011;50278;47.796;11.968;2023-04-03T01:20:23;15.27;;;10.88;;
64031;SDS011;50278;47.796;11.968;2023-04-03T01:25:40;16.05;;;10.82;;
64031;SDS011;50278;47.796;11.968;2023-04-03T01:28:13;14.48;;;10.23;;
64031;SDS011;50278;47.796;11.968;2023-04-03T01:33:29;15.15;;;10.20;;
64031;SDS011;50278;47.796;11.968;2023-04-03T01:35:55;17.52;;;11.07;;
64031;SDS011;50278;47.796;11.968;2023-04-03T01:38:20;14.65;;;10.70;;
64031;SDS011;50278;47.796;11.968;2023-04-03T01:40:46;14.40;;;10.23;;
64031;SDS011;50278;47.796;11.968;2023-04-03T01:43:12;16.60;;;11.68;;
64031;SDS011;50278;47.796;11.968;2023-04-03T01:45:37;15.10;;;10.40;;
64031;SDS011;50278;47.796;11.968;2023-04-03T01:48:03;14.07;;;10.07;;
64031;SDS011;50278;47.796;11.968;2023-04-03T01:50:29;15.25;;;10.00;;
64031;SDS011;50278;47.796;11.968;2023-04-03T01:52:55;14.93;;;10.38;;
64031;SDS011;50278;47.796;11.968;2023-04-03T01:55:20;13.93;;;9.77;;
64031;SDS011;50278;47.796;11.968;2023-04-03T01:57:46;13.52;;;10.02;;
64031;SDS011;50278;47.796;11.968;2023-04-03T02:00:12;13.52;;;10.05;;
64031;SDS011;50278;47.796;11.968;2023-04-03T02:02:38;13.57;;;9.60;;
64031;SDS011;50278;47.796;11.968;2023-04-03T02:05:04;12.57;;;9.07;;
64031;SDS011;50278;47.796;11.968;2023-04-03T02:07:30;12.95;;;8.65;;
64031;SDS011;50278;47.796;11.968;2023-04-03T02:09:55;11.52;;;8.25;;
64031;SDS011;50278;47.796;11.968;2023-04-03T02:12:21;13.68;;;8.48;;
64031;SDS011;50278;47.796;11.968;2023-04-03T02:14:47;13.85;;;8.73;;
64031;SDS011;50278;47.796;11.968;2023-04-03T02:17:12;13.30;;;8.75;;
64031;SDS011;50278;47.796;11.968;2023-04-03T02:19:38;9.85;;;7.55;;
64031;SDS011;50278;47.796;11.968;2023-04-03T02:22:04;14.63;;;7.85;;
64031;SDS011;50278;47.796;11.968;2023-04-03T02:24:30;11.35;;;8.35;;
64031;SDS011;50278;47.796;11.968;2023-04-03T02:26:58;12.35;;;8.35;;
64031;SDS011;50278;47.796;11.968;2023-04-03T02:29:24;14.07;;;8.52;;
64031;SDS011;50278;47.796;11.968;2023-04-03T02:31:50;12.13;;;8.30;;
64031;SDS011;50278;47.796;11.968;2023-04-03T02:34:16;13.73;;;8.38;;
64031;SDS011;50278;47.796;11.968;2023-04-03T02:36:43;13.07;;;9.05;;
64031;SDS011;50278;47.796;11.968;2023-04-03T02:39:10;11.25;;;8.30;;
64031;SDS011;50278;47.796;11.968;2023-04-03T02:41:36;15.70;;;8.70;;
64031;SDS011;50278;47.796;11.968;2023-04-03T02:44:07;13.05;;;8.70;;
64031;SDS011;50278;47.796;11.968;2023-04-03T02:46:34;12.48;;;8.75;;
64031;SDS011;50278;47.796;11.968;2023-04-03T02:49:01;13.00;;;8.52;;
64031;SDS011;50278;47.796;11.968;2023-04-03T02:51:27;13.40;;;9.00;;
64031;SDS011;50278;47.796;11.968;2023-04-03T02:53:53;15.30;;;8.25;;
64031;SDS011;50278;47.796;11.968;2023-04-03T02:56:23;10.88;;;7.93;;
64031;SDS011;50278;47.796;11.968;2023-04-03T02:58:48;10.85;;;8.15;;
64031;SDS011;50278;47.796;11.968;2023-04-03T03:01:16;11.68;;;8.10;;
64031;SDS011;50278;47.796;11.968;2023-04-03T03:03:41;10.20;;;7.93;;
64031;SDS011;50278;47.796;11.968;2023-04-03T03:06:07;12.73;;;8.60;;
64031;SDS011;50278;47.796;11.968;2023-04-03T03:08:39;12.93;;;8.23;;
64031;SDS011;50278;47.796;11.968;2023-04-03T03:11:05;14.30;;;9.43;;
64031;SDS011;50278;47.796;11.968;2023-04-03T03:13:32;14.23;;;9.57;;
64031;SDS011;50278;47.796;11.968;2023-04-03T03:15:57;12.55;;;9.32;;
64031;SDS011;50278;47.796;11.968;2023-04-03T03:18:23;14.30;;;8.98;;
64031;SDS011;50278;47.796;11.968;2023-04-03T03:20:53;13.98;;;10.23;;
64031;SDS011;50278;47.796;11.968;2023-04-03T03:23:19;15.50;;;9.70;;
64031;SDS011;50278;47.796;11.968;2023-04-03T03:25:45;14.10;;;9.23;;
64031;SDS011;50278;47.796;11.968;2023-04-03T03:28:10;14.32;;;9.88;;
64031;SDS011;50278;47.796;11.968;2023-04-03T03:30:37;12.27;;;8.35;;
64031;SDS011;50278;47.796;11.968;2023-04-03T03:33:02;16.13;;;9.75;;
64031;SDS011;50278;47.796;11.968;2023-04-03T03:35:28;14.90;;;10.52;;
64031;SDS011;50278;47.796;11.968;2023-04-03T03:37:54;15.38;;;9.00;;
64031;SDS011;50278;47.796;11.968;2023-04-03T03:40:20;14.68;;;10.00;;
64031;SDS011;50278;47.796;11.968;2023-04-03T03:42:45;17.60;;;10.27;;
64031;SDS011;50278;47.796;11.968;2023-04-03T03:45:11;15.60;;;10.35;;
64031;SDS011;50278;47.796;11.968;2023-04-03T03:47:37;16.80;;;11.13;;
64031;SDS011;50278;47.796;11.968;2023-04-03T03:50:03;15.00;;;10.07;;
64031;SDS011;50278;47.796;11.968;2023-04-03T03:52:29;14.07;;;9.55;;
64031;SDS011;50278;47.796;11.968;2023-04-03T03:54:55;13.18;;;9.48;;
64031;SDS011;50278;47.796;11.968;2023-04-03T03:57:21;14.75;;;9.95;;
64031;SDS011;50278;47.796;11.968;2023-04-03T03:59:47;12.48;;;8.90;;
64031;SDS011;50278;47.796;11.968;2023-04-03T04:02:16;12.63;;;10.00;;
64031;SDS011;50278;47.796;11.968;2023-04-03T04:04:41;14.98;;;8.75;;
64031;SDS011;50278;47.796;11.968;2023-04-03T04:07:08;11.20;;;8.38;;
64031;SDS011;50278;47.796;11.968;2023-04-03T04:09:34;11.52;;;7.75;;
64031;SDS011;50278;47.796;11.968;2023-04-03T04:11:59;12.60;;;8.23;;
64031;SDS011;50278;47.796;11.968;2023-04-03T04:14:26;12.25;;;8.00;;
64031;SDS011;50278;47.796;11.968;2023-04-03T04:16:52;12.07;;;8.25;;
64031;SDS011;50278;47.796;11.968;2023-04-03T04:19:22;12.02;;;8.27;;
64031;SDS011;50278;47.796;11.968;2023-04-03T04:21:48;10.10;;;7.68;;
64031;SDS011;50278;47.796;11.968;2023-04-03T04:24:14;11.15;;;8.20;;
64031;SDS011;50278;47.796;11.968;2023-04-03T04:26:39;13.00;;;8.40;;
64031;SDS011;50278;47.796;11.968;2023-04-03T04:29:08;12.13;;;8.32;;
64031;SDS011;50278;47.796;11.968;2023-04-03T04:31:35;11.30;;;8.23;;
64031;SDS011;50278;47.796;11.968;2023-04-03T04:34:01;10.70;;;7.93;;
64031;SDS011;50278;47.796;11.968;2023-04-03T04:36:27;10.63;;;7.78;;
64031;SDS011;50278;47.796;11.968;2023-04-03T04:38:52;13.95;;;7.68;;
64031;SDS011;50278;47.796;11.968;2023-04-03T04:41:20;12.68;;;8.75;;
64031;SDS011;50278;47.796;11.968;2023-04-03T04:43:48;10.65;;;8.27;;
64031;SDS011;50278;47.796;11.968;2023-04-03T04:46:14;11.07;;;8.10;;
64031;SDS011;50278;47.796;11.968;2023-04-03T04:48:45;12.38;;;8.23;;
64031;SDS011;50278;47.796;11.968;2023-04-03T04:51:12;10.35;;;7.75;;
64031;SDS011;50278;47.796;11.968;2023-04-03T04:53:38;12.13;;;8.27;;
64031;SDS011;50278;47.796;11.968;2023-04-03T04:56:04;12.23;;;8.63;;
64031;SDS011;50278;47.796;11.968;2023-04-03T04:58:32;10.70;;;8.50;;
64031;SDS011;50278;47.796;11.968;2023-04-03T05:01:00;12.90;;;8.57;;
64031;SDS011;50278;47.796;11.968;2023-04-03T05:03:28;11.88;;;9.23;;
64031;SDS011;50278;47.796;11.968;2023-04-03T05:05:54;11.73;;;9.13;;
64031;SDS011;50278;47.796;11.968;2023-04-03T05:08:20;12.82;;;8.88;;
64031;SDS011;50278;47.796;11.968;2023-04-03T05:10:46;13.77;;;10.70;;
64031;SDS011;50278;47.796;11.968;2023-04-03T05:13:12;11.65;;;8.48;;
64031;SDS011;50278;47.796;11.968;2023-04-03T05:15:38;15.73;;;9.40;;
64031;SDS011;50278;47.796;11.968;2023-04-03T05:18:04;15.98;;;12.05;;
64031;SDS011;50278;47.796;11.968;2023-04-03T05:20:30;13.05;;;8.48;;
64031;SDS011;50278;47.796;11.968;2023-04-03T05:22:57;12.68;;;9.13;;
64031;SDS011;50278;47.796;11.968;2023-04-03T05:25:23;9.93;;;7.45;;
64031;SDS011;50278;47.796;11.968;2023-04-03T05:27:48;10.48;;;8.02;;
64031;SDS011;50278;47.796;11.968;2023-04-03T05:30:15;9.63;;;7.22;;
64031;SDS011;50278;47.796;11.968;2023-04-03T05:32:41;10.43;;;7.95;;
64031;SDS011;50278;47.796;11.968;2023-04-03T05:35:17;12.32;;;9.20;;
64031;SDS011;50278;47.796;11.968;2023-04-03T05:37:45;22.30;;;14.30;;
64031;SDS011;50278;47.796;11.968;2023-04-03T05:40:11;17.30;;;12.77;;
64031;SDS011;50278;47.796;11.968;2023-04-03T05:42:40;11.93;;;8.88;;
64031;SDS011;50278;47.796;11.968;2023-04-03T05:45:06;9.15;;;7.32;;
64031;SDS011;50278;47.796;11.968;2023-04-03T05:47:32;11.30;;;7.57;;
64031;SDS011;50278;47.796;11.968;2023-04-03T05:49:58;10.25;;;7.43;;
64031;SDS011;50278;47.796;11.968;2023-04-03T05:52:28;10.98;;;7.07;;
64031;SDS011;50278;47.796;11.968;2023-04-03T05:54:56;10.27;;;7.22;;
64031;SDS011;50278;47.796;11.968;2023-04-03T05:57:25;9.43;;;7.35;;
64031;SDS011;50278;47.796;11.968;2023-04-03T05:59:51;9.60;;;6.78;;
64031;SDS011;50278;47.796;11.968;2023-04-03T06:02:19;9.10;;;7.00;;
64031;SDS011;50278;47.796;11.968;2023-04-03T06:04:47;9.73;;;6.78;;
64031;SDS011;50278;47.796;11.968;2023-04-03T06:07:13;10.73;;;7.47;;
64031;SDS011;50278;47.796;11.968;2023-04-03T06:09:48;9.40;;;7.03;;
64031;SDS011;50278;47.796;11.968;2023-04-03T06:12:16;8.73;;;6.60;;
64031;SDS011;50278;47.796;11.968;2023-04-03T06:14:42;7.28;;;5.65;;
64031;SDS011;50278;47.796;11.968;2023-04-03T06:17:08;9.50;;;6.57;;
64031;SDS011;50278;47.796;11.968;2023-04-03T06:19:35;9.48;;;6.25;;
64031;SDS011;50278;47.796;11.968;2023-04-03T06:22:01;6.95;;;5.70;;
64031;SDS011;50278;47.796;11.968;2023-04-03T06:24:28;7.97;;;5.90;;
64031;SDS011;50278;47.796;11.968;2023-04-03T06:26:55;7.50;;;5.32;;
64031;SDS011;50278;47.796;11.968;2023-04-03T06:29:21;6.65;;;5.20;;
64031;SDS011;50278;47.796;11.968;2023-04-03T06:31:47;7.55;;;6.18;;
64031;SDS011;50278;47.796;11.968;2023-04-03T06:34:13;6.65;;;5.15;;
64031;SDS011;50278;47.796;11.968;2023-04-03T06:36:40;7.70;;;5.72;;
64031;SDS011;50278;47.796;11.968;2023-04-03T06:39:06;6.45;;;5.07;;
64031;SDS011;50278;47.796;11.968;2023-04-03T06:41:32;9.73;;;5.88;;
64031;SDS011;50278;47.796;11.968;2023-04-03T06:43:58;8.18;;;5.70;;
64031;SDS011;50278;47.796;11.968;2023-04-03T06:46:24;6.40;;;5.07;;
64031;SDS011;50278;47.796;11.968;2023-04-03T06:48:51;7.72;;;5.35;;
64031;SDS011;50278;47.796;11.968;2023-04-03T06:51:18;8.10;;;6.20;;
64031;SDS011;50278;47.796;11.968;2023-04-03T06:53:44;10.02;;;5.88;;
64031;SDS011;50278;47.796;11.968;2023-04-03T06:56:10;6.50;;;5.13;;
64031;SDS011;50278;47.796;11.968;2023-04-03T06:58:36;7.90;;;5.55;;
64031;SDS011;50278;47.796;11.968;2023-04-03T07:01:02;8.07;;;5.50;;
64031;SDS011;50278;47.796;11.968;2023-04-03T07:03:28;7.25;;;5.60;;
64031;SDS011;50278;47.796;11.968;2023-04-03T07:05:53;6.50;;;5.13;;
64031;SDS011;50278;47.796;11.968;2023-04-03T07:08:19;6.05;;;5.40;;
64031;SDS011;50278;47.796;11.968;2023-04-03T07:10:45;7.82;;;5.32;;
64031;SDS011;50278;47.796;11.968;2023-04-03T07:13:14;6.22;;;5.07;;
64031;SDS011;50278;47.796;11.968;2023-04-03T07:15:39;6.65;;;5.20;;
64031;SDS011;50278;47.796;11.968;2023-04-03T07:18:05;6.80;;;5.13;;
64031;SDS011;50278;47.796;11.968;2023-04-03T07:20:31;7.43;;;5.53;;
64031;SDS011;50278;47.796;11.968;2023-04-03T07:22:57;8.52;;;5.38;;
64031;SDS011;50278;47.796;11.968;2023-04-03T07:25:23;6.00;;;4.65;;
64031;SDS011;50278;47.796;11.968;2023-04-03T07:27:48;5.90;;;5.07;;
64031;SDS011;50278;47.796;11.968;2023-04-03T07:30:14;6.90;;;5.50;;
64031;SDS011;50278;47.796;11.968;2023-04-03T07:32:40;5.68;;;4.60;;
64031;SDS011;50278;47.796;11.968;2023-04-03T07:35:06;7.53;;;4.75;;
64031;SDS011;50278;47.796;11.968;2023-04-03T07:37:32;7.55;;;4.95;;
64031;SDS011;50278;47.796;11.968;2023-04-03T07:39:57;6.53;;;4.80;;
64031;SDS011;50278;47.796;11.968;2023-04-03T07:42:24;5.47;;;4.88;;
64031;SDS011;50278;47.796;11.968;2023-04-03T07:44:52;7.32;;;5.30;;
64031;SDS011;50278;47.796;11.968;2023-04-03T07:47:18;6.03;;;4.88;;
64031;SDS011;50278;47.796;11.968;2023-04-03T07:49:45;5.93;;;5.32;;
64031;SDS011;50278;47.796;11.968;2023-04-03T07:52:11;5.72;;;4.68;;
64031;SDS011;50278;47.796;11.968;2023-04-03T07:54:36;5.57;;;4.35;;
64031;SDS011;50278;47.796;11.968;2023-04-03T07:57:02;5.45;;;4.20;;
64031;SDS011;50278;47.796;11.968;2023-04-03T07:59:28;4.88;;;4.38;;
64031;SDS011;50278;47.796;11.968;2023-04-03T08:01:53;4.70;;;4.05;;
64031;SDS011;50278;47.796;11.968;2023-04-03T08:04:19;5.68;;;4.70;;
64031;SDS011;50278;47.796;11.968;2023-04-03T08:06:44;5.28;;;4.78;;
64031;SDS011;50278;47.796;11.968;2023-04-03T08:09:10;4.72;;;4.13;;
64031;SDS011;50278;47.796;11.968;2023-04-03T08:11:38;4.30;;;3.90;;
64031;SDS011;50278;47.796;11.968;2023-04-03T08:14:04;5.55;;;4.18;;
64031;SDS011;50278;47.796;11.968;2023-04-03T08:16:29;6.05;;;4.90;;
64031;SDS011;50278;47.796;11.968;2023-04-03T08:18:55;5.13;;;4.57;;
64031;SDS011;50278;47.796;11.968;2023-04-03T08:21:21;5.45;;;4.40;;
64031;SDS011;50278;47.796;11.968;2023-04-03T08:23:47;6.40;;;4.65;;
64031;SDS011;50278;47.796;11.968;2023-04-03T08:26:17;4.60;;;4.15;;
64031;SDS011;50278;47.796;11.968;2023-04-03T08:28:46;6.05;;;4.28;;
64031;SDS011;50278;47.796;11.968;2023-04-03T08:31:14;5.25;;;4.22;;
64031;SDS011;50278;47.796;11.968;2023-04-03T08:33:43;5.45;;;4.50;;
64031;SDS011;50278;47.796;11.968;2023-04-03T08:36:17;4.28;;;3.88;;
64031;SDS011;50278;47.796;11.968;2023-04-03T08:38:47;5.63;;;4.25;;
64031;SDS011;50278;47.796;11.968;2023-04-03T08:44:00;7.00;;;4.18;;
64031;SDS011;50278;47.796;11.968;2023-04-03T08:49:35;5.88;;;3.90;;
64031;SDS011;50278;47.796;11.968;2023-04-03T08:52:09;6.13;;;4.20;;
64031;SDS011;50278;47.796;11.968;2023-04-03T08:57:12;4.85;;;3.75;;
64031;SDS011;50278;47.796;11.968;2023-04-03T08:59:37;4.53;;;3.88;;
64031;SDS011;50278;47.796;11.968;2023-04-03T09:02:14;4.20;;;3.58;;
64031;SDS011;50278;47.796;11.968;2023-04-03T09:04:49;3.97;;;3.00;;
64031;SDS011;50278;47.796;11.968;2023-04-03T09:07:17;5.15;;;4.30;;
64031;SDS011;50278;47.796;11.968;2023-04-03T09:09:59;6.13;;;3.67;;
64031;SDS011;50278;47.796;11.968;2023-04-03T09:12:29;3.78;;;3.30;;
64031;SDS011;50278;47.796;11.968;2023-04-03T09:22:51;4.10;;;3.40;;
64031;SDS011;50278;47.796;11.968;2023-04-03T09:25:31;3.60;;;3.30;;
64031;SDS011;50278;47.796;11.968;2023-04-03T09:30:27;3.78;;;3.33;;
64031;SDS011;50278;47.796;11.968;2023-04-03T09:32:54;4.80;;;3.40;;
64031;SDS011;50278;47.796;11.968;2023-04-03T09:35:28;4.53;;;3.70;;
64031;SDS011;50278;47.796;11.968;2023-04-03T09:43:33;4.05;;;3.60;;
64031;SDS011;50278;47.796;11.968;2023-04-03T09:46:33;6.53;;;4.45;;
64031;SDS011;50278;47.796;11.968;2023-04-03T09:49:00;4.60;;;3.88;;
64031;SDS011;50278;47.796;11.968;2023-04-03T09:51:28;6.93;;;4.00;;
64031;SDS011;50278;47.796;11.968;2023-04-03T09:53:54;5.00;;;3.35;;
64031;SDS011;50278;47.796;11.968;2023-04-03T09:56:25;6.75;;;4.30;;
64031;SDS011;50278;47.796;11.968;2023-04-03T10:01:25;4.53;;;3.83;;
64031;SDS011;50278;47.796;11.968;2023-04-03T10:04:06;4.57;;;3.80;;
64031;SDS011;50278;47.796;11.968;2023-04-03T10:06:32;4.85;;;3.80;;
64031;SDS011;50278;47.796;11.968;2023-04-03T10:09:27;4.03;;;3.38;;
64031;SDS011;50278;47.796;11.968;2023-04-03T10:12:08;4.05;;;3.65;;
64031;SDS011;50278;47.796;11.968;2023-04-03T10:14:37;6.65;;;3.50;;
64031;SDS011;50278;47.796;11.968;2023-04-03T10:17:18;4.15;;;3.17;;
64031;SDS011;50278;47.796;11.968;2023-04-03T10:27:56;4.03;;;3.58;;
64031;SDS011;50278;47.796;11.968;2023-04-03T10:38:39;3.67;;;2.85;;
64031;SDS011;50278;47.796;11.968;2023-04-03T10:49:53;5.10;;;2.83;;
64031;SDS011;50278;47.796;11.968;2023-04-03T10:57:56;4.50;;;3.88;;
64031;SDS011;50278;47.796;11.968;2023-04-03T11:03:06;5.13;;;3.28;;
64031;SDS011;50278;47.796;11.968;2023-04-03T11:05:42;7.20;;;3.45;;
64031;SDS011;50278;47.796;11.968;2023-04-03T11:08:13;4.10;;;3.70;;
64031;SDS011;50278;47.796;11.968;2023-04-03T11:11:08;3.75;;;3.00;;
64031;SDS011;50278;47.796;11.968;2023-04-03T11:16:36;3.80;;;2.95;;
64031;SDS011;50278;47.796;11.968;2023-04-03T11:22:33;2.85;;;2.55;;
64031;SDS011;50278;47.796;11.968;2023-04-03T11:24:56;3.38;;;2.40;;
64031;SDS011;50278;47.796;11.968;2023-04-03T11:27:30;3.25;;;2.58;;
64031;SDS011;50278;47.796;11.968;2023-04-03T11:30:05;3.63;;;2.70;;
64031;SDS011;50278;47.796;11.968;2023-04-03T11:35:37;3.00;;;2.38;;
64031;SDS011;50278;47.796;11.968;2023-04-03T11:38:10;2.88;;;2.58;;
64031;SDS011;50278;47.796;11.968;2023-04-03T11:40:45;3.20;;;2.90;;
64031;SDS011;50278;47.796;11.968;2023-04-03T11:43:30;2.97;;;2.58;;
64031;SDS011;50278;47.796;11.968;2023-04-03T11:50:58;3.13;;;2.35;;
64031;SDS011;50278;47.796;11.968;2023-04-03T11:53:42;2.80;;;2.40;;
64031;SDS011;50278;47.796;11.968;2023-04-03T12:04:14;5.80;;;3.38;;
64031;SDS011;50278;47.796;11.968;2023-04-03T12:06:48;4.60;;;3.42;;
64031;SDS011;50278;47.796;11.968;2023-04-03T12:09:24;5.80;;;3.58;;
64031;SDS011;50278;47.796;11.968;2023-04-03T12:12:25;3.80;;;3.38;;
64031;SDS011;50278;47.796;11.968;2023-04-03T12:14:55;4.03;;;3.50;;
64031;SDS011;50278;47.796;11.968;2023-04-03T12:17:36;4.63;;;3.53;;
64031;SDS011;50278;47.796;11.968;2023-04-03T12:20:10;4.75;;;3.20;;
64031;SDS011;50278;47.796;11.968;2023-04-03T12:23:07;3.72;;;3.33;;
64031;SDS011;50278;47.796;11.968;2023-04-03T12:25:49;4.00;;;2.92;;
64031;SDS011;50278;47.796;11.968;2023-04-03T12:28:16;4.68;;;3.55;;
64031;SDS011;50278;47.796;11.968;2023-04-03T12:30:41;4.35;;;3.30;;
64031;SDS011;50278;47.796;11.968;2023-04-03T12:33:18;4.97;;;3.30;;
64031;SDS011;50278;47.796;11.968;2023-04-03T12:36:26;6.22;;;3.70;;
64031;SDS011;50278;47.796;11.968;2023-04-03T12:42:02;5.70;;;3.92;;
64031;SDS011;50278;47.796;11.968;2023-04-03T12:44:44;4.70;;;3.08;;
64031;SDS011;50278;47.796;11.968;2023-04-03T12:47:28;5.15;;;3.60;;
64031;SDS011;50278;47.796;11.968;2023-04-03T12:49:58;6.82;;;3.65;;
64031;SDS011;50278;47.796;11.968;2023-04-03T12:52:32;5.20;;;2.90;;
64031;SDS011;50278;47.796;11.968;2023-04-03T12:55:03;4.72;;;2.78;;
64031;SDS011;50278;47.796;11.968;2023-04-03T12:57:38;3.92;;;2.78;;
64031;SDS011;50278;47.796;11.968;2023-04-03T13:00:18;3.60;;;2.67;;
64031;SDS011;50278;47.796;11.968;2023-04-03T13:02:53;3.22;;;2.60;;
64031;SDS011;50278;47.796;11.968;2023-04-03T13:05:19;6.18;;;2.90;;
64031;SDS011;50278;47.796;11.968;2023-04-03T13:07:49;3.33;;;2.45;;
64031;SDS011;50278;47.796;11.968;2023-04-03T13:10:30;4.75;;;3.15;;
64031;SDS011;50278;47.796;11.968;2023-04-03T13:13:07;2.65;;;2.28;;
64031;SDS011;50278;47.796;11.968;2023-04-03T13:15:45;4.15;;;3.05;;
64031;SDS011;50278;47.796;11.968;2023-04-03T13:20:53;4.40;;;2.55;;
64031;SDS011;50278;47.796;11.968;2023-04-03T13:23:26;3.63;;;2.50;;
64031;SDS011;50278;47.796;11.968;2023-04-03T13:25:51;3.33;;;2.35;;
64031;SDS011;50278;47.796;11.968;2023-04-03T13:28:19;2.72;;;2.15;;
64031;SDS011;50278;47.796;11.968;2023-04-03T13:30:58;3.05;;;2.55;;
64031;SDS011;50278;47.796;11.968;2023-04-03T13:34:29;2.75;;;2.20;;
64031;SDS011;50278;47.796;11.968;2023-04-03T13:36:37;4.40;;;2.50;;
64031;SDS011;50278;47.796;11.968;2023-04-03T13:39:07;3.03;;;2.13;;
64031;SDS011;50278;47.796;11.968;2023-04-03T13:41:48;2.90;;;2.03;;
64031;SDS011;50278;47.796;11.968;2023-04-03T13:50:31;2.72;;;2.30;;
64031;SDS011;50278;47.796;11.968;2023-04-03T13:52:53;3.42;;;2.50;;
64031;SDS011;50278;47.796;11.968;2023-04-03T13:55:26;3.63;;;2.50;;
64031;SDS011;50278;47.796;11.968;2023-04-03T13:58:19;4.03;;;2.80;;
64031;SDS011;50278;47.796;11.968;2023-04-03T14:00:48;3.83;;;2.85;;
64031;SDS011;50278;47.796;11.968;2023-04-03T14:03:57;3.90;;;2.72;;
64031;SDS011;50278;47.796;11.968;2023-04-03T14:06:26;3.10;;;2.47;;
64031;SDS011;50278;47.796;11.968;2023-04-03T14:08:52;6.78;;;2.83;;
64031;SDS011;50278;47.796;11.968;2023-04-03T14:11:22;4.22;;;2.70;;
64031;SDS011;50278;47.796;11.968;2023-04-03T14:13:52;3.15;;;2.53;;
64031;SDS011;50278;47.796;11.968;2023-04-03T14:16:19;3.92;;;3.30;;
64031;SDS011;50278;47.796;11.968;2023-04-03T14:18:47;5.28;;;2.63;;
64031;SDS011;50278;47.796;11.968;2023-04-03T14:21:16;3.22;;;2.15;;
64031;SDS011;50278;47.796;11.968;2023-04-03T14:23:42;3.15;;;2.53;;
64031;SDS011;50278;47.796;11.968;2023-04-03T14:26:12;4.03;;;3.13;;
64031;SDS011;50278;47.796;11.968;2023-04-03T14:28:43;4.20;;;3.42;;
64031;SDS011;50278;47.796;11.968;2023-04-03T14:31:11;4.50;;;2.63;;
64031;SDS011;50278;47.796;11.968;2023-04-03T14:33:37;3.53;;;2.75;;
64031;SDS011;50278;47.796;11.968;2023-04-03T14:36:16;5.00;;;2.97;;
64031;SDS011;50278;47.796;11.968;2023-04-03T14:38:45;4.72;;;3.20;;
64031;SDS011;50278;47.796;11.968;2023-04-03T14:41:11;4.45;;;3.40;;
64031;SDS011;50278;47.796;11.968;2023-04-03T14:43:38;6.07;;;4.38;;
64031;SDS011;50278;47.796;11.968;2023-04-03T14:46:04;5.15;;;4.18;;
64031;SDS011;50278;47.796;11.968;2023-04-03T14:48:30;7.20;;;5.70;;
64031;SDS011;50278;47.796;11.968;2023-04-03T14:50:56;5.45;;;3.40;;
64031;SDS011;50278;47.796;11.968;2023-04-03T14:53:22;4.15;;;3.05;;
64031;SDS011;50278;47.796;11.968;2023-04-03T14:55:49;3.25;;;2.95;;
64031;SDS011;50278;47.796;11.968;2023-04-03T14:58:16;7.68;;;3.28;;
64031;SDS011;50278;47.796;11.968;2023-04-03T15:00:45;4.90;;;3.25;;
64031;SDS011;50278;47.796;11.968;2023-04-03T15:03:28;4.40;;;3.38;;
64031;SDS011;50278;47.796;11.968;2023-04-03T15:05:54;3.47;;;2.75;;
64031;SDS011;50278;47.796;11.968;2023-04-03T15:08:24;4.43;;;3.50;;
64031;SDS011;50278;47.796;11.968;2023-04-03T15:10:51;2.90;;;2.45;;
64031;SDS011;50278;47.796;11.968;2023-04-03T15:13:20;3.83;;;3.42;;
64031;SDS011;50278;47.796;11.968;2023-04-03T15:15:46;5.20;;;2.92;;
64031;SDS011;50278;47.796;11.968;2023-04-03T15:18:14;4.35;;;3.53;;
64031;SDS011;50278;47.796;11.968;2023-04-03T15:20:43;5.20;;;2.83;;
64031;SDS011;50278;47.796;11.968;2023-04-03T15:23:10;3.38;;;2.90;;
64031;SDS011;50278;47.796;11.968;2023-04-03T15:25:47;2.88;;;2.53;;
64031;SDS011;50278;47.796;11.968;2023-04-03T15:28:18;4.60;;;3.75;;
64031;SDS011;50278;47.796;11.968;2023-04-03T15:30:44;5.93;;;3.95;;
64031;SDS011;50278;47.796;11.968;2023-04-03T15:33:09;3.80;;;2.38;;
64031;SDS011;50278;47.796;11.968;2023-04-03T15:35:35;3.10;;;2.80;;
64031;SDS011;50278;47.796;11.968;2023-04-03T15:38:00;4.53;;;2.60;;
64031;SDS011;50278;47.796;11.968;2023-04-03T15:40:26;2.85;;;2.55;;
64031;SDS011;50278;47.796;11.968;2023-04-03T15:42:52;5.47;;;4.28;;
64031;SDS011;50278;47.796;11.968;2023-04-03T15:45:17;4.40;;;3.03;;
64031;SDS011;50278;47.796;11.968;2023-04-03T15:47:43;4.18;;;3.25;;
64031;SDS011;50278;47.796;11.968;2023-04-03T15:50:08;3.78;;;2.83;;
64031;SDS011;50278;47.796;11.968;2023-04-03T15:52:34;3.25;;;2.42;;
64031;SDS011;50278;47.796;11.968;2023-04-03T15:55:00;3.33;;;1.90;;
64031;SDS011;50278;47.796;11.968;2023-04-03T15:57:26;3.00;;;2.20;;
64031;SDS011;50278;47.796;11.968;2023-04-03T15:59:52;3.90;;;1.90;;
64031;SDS011;50278;47.796;11.968;2023-04-03T16:02:17;2.95;;;2.33;;
64031;SDS011;50278;47.796;11.968;2023-04-03T16:04:44;3.28;;;2.38;;
64031;SDS011;50278;47.796;11.968;2023-04-03T16:07:09;6.78;;;2.72;;
64031;SDS011;50278;47.796;11.968;2023-04-03T16:09:35;3.65;;;2.53;;
64031;SDS011;50278;47.796;11.968;2023-04-03T16:12:01;6.68;;;3.95;;
64031;SDS011;50278;47.796;11.968;2023-04-03T16:14:27;2.97;;;2.10;;
64031;SDS011;50278;47.796;11.968;2023-04-03T16:16:55;3.50;;;2.40;;
64031;SDS011;50278;47.796;11.968;2023-04-03T16:19:21;14.70;;;6.70;;
64031;SDS011;50278;47.796;11.968;2023-04-03T16:21:46;12.25;;;5.97;;